createdAt,value
2023-04-09T00:00:27.521Z,7.80
2023-04-09T00:01:27.531Z,7.78
2023-04-09T00:02:27.538Z,7.80
2023-04-09T00:03:27.657Z,7.78
2023-04-09T00:04:27.509Z,7.77
2023-04-09T00:05:27.502Z,7.76
2023-04-09T00:06:27.491Z,7.74
2023-04-09T00:07:27.474Z,7.74
2023-04-09T00:08:27.496Z,7.71
2023-04-09T00:09:27.438Z,7.71
2023-04-09T00:10:27.414Z,7.69
2023-04-09T00:11:27.429Z,7.64
2023-04-09T00:12:27.440Z,7.62
2023-04-09T00:13:38.528Z,7.58
2023-04-09T00:14:27.378Z,7.54
2023-04-09T00:15:31.216Z,7.50
2023-04-09T00:16:27.385Z,7.44
2023-04-09T00:17:27.385Z,7.43
2023-04-09T00:18:27.356Z,7.39
2023-04-09T00:19:27.332Z,7.33
2023-04-09T00:20:27.345Z,7.29
2023-04-09T00:21:27.318Z,7.24
2023-04-09T00:22:27.329Z,7.21
2023-04-09T00:23:27.296Z,7.16
2023-04-09T00:24:27.317Z,7.10
2023-04-09T00:25:27.287Z,7.04
2023-04-09T00:26:27.255Z,6.97
2023-04-09T00:27:27.276Z,6.89
2023-04-09T00:28:27.383Z,6.86
2023-04-09T00:29:27.240Z,6.81
2023-04-09T00:30:27.213Z,6.75
2023-04-09T00:31:27.227Z,6.71
2023-04-09T00:32:27.203Z,6.65
2023-04-09T00:33:27.190Z,6.60
2023-04-09T00:34:27.249Z,6.53
2023-04-09T00:35:27.166Z,6.49
2023-04-09T00:36:27.195Z,6.46
2023-04-09T00:37:27.146Z,6.40
2023-04-09T00:38:27.135Z,6.35
2023-04-09T00:39:27.120Z,6.32
2023-04-09T00:40:27.119Z,6.28
2023-04-09T00:41:27.089Z,6.25
2023-04-09T00:42:27.088Z,6.21
2023-04-09T00:43:27.133Z,6.18
2023-04-09T00:44:27.081Z,6.15
2023-04-09T00:45:27.110Z,6.12
2023-04-09T00:46:27.141Z,6.09
2023-04-09T00:47:27.101Z,6.08
2023-04-09T00:48:27.025Z,6.05
2023-04-09T00:49:27.022Z,6.00
2023-04-09T00:50:27.046Z,5.95
2023-04-09T00:51:26.994Z,5.91
2023-04-09T00:52:26.992Z,5.87
2023-04-09T00:53:26.989Z,5.84
2023-04-09T00:54:26.965Z,5.82
2023-04-09T00:55:26.962Z,5.76
2023-04-09T00:56:26.943Z,5.70
2023-04-09T00:57:26.943Z,5.67
2023-04-09T00:58:26.920Z,5.62
2023-04-09T00:59:26.965Z,5.59
2023-04-09T01:00:26.923Z,5.58
2023-04-09T01:01:26.958Z,5.54
2023-04-09T01:02:26.975Z,5.54
2023-04-09T01:03:26.981Z,5.50
2023-04-09T01:04:26.844Z,5.48
2023-04-09T01:05:27.149Z,5.44
2023-04-09T01:06:26.852Z,5.41
2023-04-09T01:07:26.825Z,5.40
2023-04-09T01:08:26.805Z,5.36
2023-04-09T01:09:26.807Z,5.36
2023-04-09T01:10:26.811Z,5.33
2023-04-09T01:11:26.798Z,5.32
2023-04-09T01:12:26.761Z,5.32
2023-04-09T01:13:26.809Z,5.29
2023-04-09T01:14:26.773Z,5.24
2023-04-09T01:15:26.748Z,5.22
2023-04-09T01:16:26.784Z,5.19
2023-04-09T01:17:26.752Z,5.15
2023-04-09T01:18:26.708Z,5.12
2023-04-09T01:19:26.695Z,5.11
2023-04-09T01:20:26.697Z,5.06
2023-04-09T01:21:26.715Z,5.03
2023-04-09T01:22:26.720Z,4.98
2023-04-09T01:23:26.661Z,4.97
2023-04-09T01:24:26.717Z,4.93
2023-04-09T01:25:26.648Z,4.91
2023-04-09T01:26:26.626Z,4.86
2023-04-09T01:27:26.674Z,4.83
2023-04-09T01:28:26.593Z,4.79
2023-04-09T01:29:26.631Z,4.79
2023-04-09T01:30:26.626Z,4.75
2023-04-09T01:31:26.573Z,4.72
2023-04-09T01:32:26.732Z,4.72
2023-04-09T01:33:26.561Z,4.67
2023-04-09T01:34:26.546Z,4.63
2023-04-09T01:35:26.546Z,4.60
2023-04-09T01:36:26.530Z,4.57
2023-04-09T01:37:26.520Z,4.54
2023-04-09T01:38:26.525Z,4.51
2023-04-09T01:39:26.490Z,4.51
2023-04-09T01:40:26.482Z,4.48
2023-04-09T01:41:26.521Z,4.45
2023-04-09T01:42:26.470Z,4.42
2023-04-09T01:43:26.501Z,4.39
2023-04-09T01:44:26.483Z,4.36
2023-04-09T01:45:26.496Z,4.34
2023-04-09T01:46:26.504Z,4.30
2023-04-09T01:47:26.434Z,4.27
2023-04-09T01:48:26.419Z,4.26
2023-04-09T01:49:26.391Z,4.21
2023-04-09T01:50:26.413Z,4.21
2023-04-09T01:51:26.437Z,4.18
2023-04-09T01:52:26.429Z,4.18
2023-04-09T01:53:26.369Z,4.17
2023-04-09T01:54:26.363Z,4.13
2023-04-09T01:55:26.345Z,4.12
2023-04-09T01:56:26.305Z,4.09
2023-04-09T01:57:26.347Z,4.09
2023-04-09T01:58:26.318Z,4.06
2023-04-09T01:59:26.296Z,4.03
2023-04-09T02:00:26.292Z,4.03
2023-04-09T02:01:26.307Z,4.03
2023-04-09T02:02:26.322Z,4.02
2023-04-09T02:03:26.358Z,4.03
2023-04-09T02:04:26.324Z,4.03
2023-04-09T02:05:26.252Z,4.00
2023-04-09T02:06:26.226Z,4.02
2023-04-09T02:07:26.208Z,4.05
2023-04-09T02:08:26.184Z,4.06
2023-04-09T02:09:26.222Z,4.09
2023-04-09T02:10:26.188Z,4.12
2023-04-09T02:11:26.180Z,4.17
2023-04-09T02:12:26.216Z,4.20
2023-04-09T02:13:26.148Z,4.21
2023-04-09T02:14:26.172Z,4.21
2023-04-09T02:15:26.126Z,4.21
2023-04-09T02:16:26.108Z,4.27
2023-04-09T02:17:26.203Z,4.30
2023-04-09T02:18:26.132Z,4.30
2023-04-09T02:19:26.085Z,4.31
2023-04-09T02:20:26.090Z,4.31
2023-04-09T02:21:26.058Z,4.34
2023-04-09T02:22:26.052Z,4.34
2023-04-09T02:23:26.041Z,4.31
2023-04-09T02:24:26.039Z,4.31
2023-04-09T02:25:26.034Z,4.30
2023-04-09T02:26:25.989Z,4.30
2023-04-09T02:27:26.035Z,4.30
2023-04-09T02:28:25.985Z,4.28
2023-04-09T02:29:26.003Z,4.27
2023-04-09T02:30:25.974Z,4.27
2023-04-09T02:31:26.016Z,4.26
2023-04-09T02:32:25.982Z,4.27
2023-04-09T02:33:25.945Z,4.27
2023-04-09T02:34:25.943Z,4.27
2023-04-09T02:35:25.915Z,4.31
2023-04-09T02:36:25.946Z,4.28
2023-04-09T02:37:25.927Z,4.28
2023-04-09T02:38:25.943Z,4.27
2023-04-09T02:39:25.866Z,4.30
2023-04-09T02:40:25.861Z,4.36
2023-04-09T02:41:25.887Z,4.36
2023-04-09T02:42:25.853Z,4.35
2023-04-09T02:43:25.833Z,4.35
2023-04-09T02:44:25.844Z,4.31
2023-04-09T02:45:25.804Z,4.34
2023-04-09T02:46:25.861Z,4.31
2023-04-09T02:47:25.825Z,4.30
2023-04-09T02:48:26.044Z,4.28
2023-04-09T02:49:25.811Z,4.26
2023-04-09T02:50:27.323Z,4.24
2023-04-09T02:51:25.763Z,4.23
2023-04-09T02:52:25.777Z,4.26
2023-04-09T02:53:25.740Z,4.24
2023-04-09T02:54:25.733Z,4.23
2023-04-09T02:55:25.725Z,4.21
2023-04-09T02:56:25.744Z,4.20
2023-04-09T02:57:25.762Z,4.17
2023-04-09T02:58:25.794Z,4.16
2023-04-09T02:59:25.728Z,4.17
2023-04-09T03:00:25.695Z,4.18
2023-04-09T03:01:25.838Z,4.20
2023-04-09T03:02:25.893Z,4.20
2023-04-09T03:03:25.789Z,4.18
2023-04-09T03:04:25.877Z,4.16
2023-04-09T03:05:25.666Z,4.13
2023-04-09T03:06:25.743Z,4.12
2023-04-09T03:07:25.738Z,4.10
2023-04-09T03:08:25.775Z,4.12
2023-04-09T03:09:25.793Z,4.08
2023-04-09T03:10:25.686Z,4.12
2023-04-09T03:11:25.762Z,4.10
2023-04-09T03:12:25.630Z,4.10
2023-04-09T03:13:25.703Z,4.13
2023-04-09T03:14:25.637Z,4.16
2023-04-09T03:15:25.591Z,4.13
2023-04-09T03:16:25.635Z,4.13
2023-04-09T03:17:25.730Z,4.16
2023-04-09T03:18:25.783Z,4.16
2023-04-09T03:19:25.563Z,4.13
2023-04-09T03:20:25.847Z,4.16
2023-04-09T03:21:25.663Z,4.13
2023-04-09T03:22:25.517Z,4.10
2023-04-09T03:23:25.739Z,4.06
2023-04-09T03:24:25.484Z,4.08
2023-04-09T03:25:25.497Z,4.06
2023-04-09T03:26:25.707Z,4.09
2023-04-09T03:27:25.386Z,4.10
2023-04-09T03:28:25.397Z,4.16
2023-04-09T03:29:25.492Z,4.17
2023-04-09T03:30:25.364Z,4.16
2023-04-09T03:31:25.426Z,4.17
2023-04-09T03:32:25.396Z,4.17
2023-04-09T03:33:25.615Z,4.17
2023-04-09T03:34:25.364Z,4.17
2023-04-09T03:35:25.494Z,4.13
2023-04-09T03:36:25.301Z,4.12
2023-04-09T03:37:25.290Z,4.08
2023-04-09T03:38:25.269Z,4.06
2023-04-09T03:39:25.254Z,4.05
2023-04-09T03:40:25.293Z,4.03
2023-04-09T03:41:25.278Z,4.02
2023-04-09T03:42:25.244Z,3.98
2023-04-09T03:43:25.242Z,3.96
2023-04-09T03:44:25.211Z,3.96
2023-04-09T03:45:25.185Z,3.96
2023-04-09T03:46:25.384Z,3.98
2023-04-09T03:47:25.174Z,3.96
2023-04-09T03:48:25.160Z,3.96
2023-04-09T03:49:25.145Z,3.98
2023-04-09T03:50:25.162Z,3.98
2023-04-09T03:51:25.135Z,3.99
2023-04-09T03:52:25.131Z,4.03
2023-04-09T03:53:25.117Z,4.03
2023-04-09T03:54:25.362Z,4.05
2023-04-09T03:55:25.076Z,4.03
2023-04-09T03:56:25.069Z,4.02
2023-04-09T03:57:25.064Z,4.00
2023-04-09T03:58:25.070Z,4.00
2023-04-09T03:59:25.016Z,3.98
2023-04-09T04:00:25.059Z,3.96
2023-04-09T04:01:25.046Z,3.94
2023-04-09T04:02:25.136Z,4.00
2023-04-09T04:03:25.093Z,4.02
2023-04-09T04:04:25.082Z,4.03
2023-04-09T04:05:25.007Z,4.02
2023-04-09T04:06:24.980Z,3.99
2023-04-09T04:07:24.958Z,3.99
2023-04-09T04:08:24.953Z,3.96
2023-04-09T04:09:24.934Z,3.94
2023-04-09T04:10:24.953Z,3.90
2023-04-09T04:11:24.913Z,3.88
2023-04-09T04:12:24.936Z,3.85
2023-04-09T04:13:24.908Z,3.82
2023-04-09T04:14:24.959Z,3.80
2023-04-09T04:15:24.883Z,3.76
2023-04-09T04:16:24.907Z,3.76
2023-04-09T04:17:24.868Z,3.74
2023-04-09T04:18:24.817Z,3.74
2023-04-09T04:19:24.787Z,3.74
2023-04-09T04:20:24.848Z,3.73
2023-04-09T04:21:24.805Z,3.73
2023-04-09T04:22:26.245Z,3.70
2023-04-09T04:23:24.737Z,3.72
2023-04-09T04:24:24.828Z,3.70
2023-04-09T04:25:24.746Z,3.69
2023-04-09T04:26:24.735Z,3.70
2023-04-09T04:27:24.680Z,3.73
2023-04-09T04:28:24.794Z,3.73
2023-04-09T04:29:24.773Z,3.72
2023-04-09T04:30:25.103Z,3.70
2023-04-09T04:31:24.946Z,3.70
2023-04-09T04:32:24.943Z,3.73
2023-04-09T04:33:24.635Z,3.73
2023-04-09T04:34:24.642Z,3.70
2023-04-09T04:35:24.672Z,3.67
2023-04-09T04:36:24.660Z,3.63
2023-04-09T04:37:24.581Z,3.62
2023-04-09T04:38:24.610Z,3.55
2023-04-09T04:39:24.576Z,3.52
2023-04-09T04:40:24.586Z,3.51
2023-04-09T04:41:24.596Z,3.44
2023-04-09T04:42:24.554Z,3.41
2023-04-09T04:43:24.518Z,3.37
2023-04-09T04:44:24.561Z,3.36
2023-04-09T04:45:24.547Z,3.32
2023-04-09T04:46:24.502Z,3.30
2023-04-09T04:47:24.542Z,3.30
2023-04-09T04:48:24.574Z,3.29
2023-04-09T04:49:24.490Z,3.26
2023-04-09T04:50:24.471Z,3.23
2023-04-09T04:51:24.486Z,3.23
2023-04-09T04:52:24.467Z,3.23
2023-04-09T04:53:24.426Z,3.20
2023-04-09T04:54:24.434Z,3.17
2023-04-09T04:55:24.421Z,3.15
2023-04-09T04:56:24.401Z,3.11
2023-04-09T04:57:24.394Z,3.12
2023-04-09T04:58:24.404Z,3.12
2023-04-09T04:59:24.377Z,3.11
2023-04-09T05:00:24.381Z,3.11
2023-04-09T05:01:24.380Z,3.09
2023-04-09T05:02:24.462Z,3.08
2023-04-09T05:03:27.029Z,3.07
2023-04-09T05:04:24.425Z,3.07
2023-04-09T05:05:24.321Z,3.05
2023-04-09T05:06:24.311Z,3.05
2023-04-09T05:07:24.302Z,3.04
2023-04-09T05:08:24.336Z,3.02
2023-04-09T05:10:16.036Z,3.05
2023-04-09T05:11:16.860Z,3.04
2023-04-09T05:12:16.806Z,3.02
2023-04-09T05:13:16.823Z,2.99
2023-04-09T05:14:16.773Z,3.00
2023-04-09T05:15:16.830Z,2.99
2023-04-09T05:16:16.795Z,2.97
2023-04-09T05:17:16.801Z,2.99
2023-04-09T05:18:16.781Z,2.96
2023-04-09T05:19:16.744Z,2.96
2023-04-09T05:20:16.897Z,2.94
2023-04-09T05:21:17.040Z,2.94
2023-04-09T05:22:16.947Z,2.93
2023-04-09T05:23:16.773Z,2.94
2023-04-09T05:24:16.943Z,2.94
2023-04-09T05:25:16.736Z,2.96
2023-04-09T05:26:17.056Z,2.97
2023-04-09T05:27:17.010Z,2.96
2023-04-09T05:28:16.851Z,2.94
2023-04-09T05:29:16.691Z,2.97
2023-04-09T05:30:16.882Z,2.94
2023-04-09T05:31:16.895Z,2.96
2023-04-09T05:32:16.696Z,2.96
2023-04-09T05:33:17.128Z,2.97
2023-04-09T05:34:16.908Z,2.99
2023-04-09T05:35:16.993Z,3.00
2023-04-09T05:36:16.715Z,3.02
2023-04-09T05:37:16.842Z,3.04
2023-04-09T05:38:16.719Z,3.07
2023-04-09T05:39:16.578Z,3.09
2023-04-09T05:40:16.784Z,3.09
2023-04-09T05:41:16.567Z,3.12
2023-04-09T05:42:16.534Z,3.12
2023-04-09T05:43:16.991Z,3.15
2023-04-09T05:44:16.508Z,3.18
2023-04-09T05:45:16.537Z,3.22
2023-04-09T05:46:16.537Z,3.26
2023-04-09T05:47:16.536Z,3.27
2023-04-09T05:48:16.898Z,3.30
2023-04-09T05:49:16.470Z,3.36
2023-04-09T05:50:16.770Z,3.45
2023-04-09T05:51:16.809Z,3.52
2023-04-09T05:52:17.063Z,3.55
2023-04-09T05:53:16.476Z,3.63
2023-04-09T05:54:16.408Z,3.66
2023-04-09T05:55:16.450Z,3.70
2023-04-09T05:56:16.365Z,3.76
2023-04-09T05:57:16.494Z,3.80
2023-04-09T05:58:16.351Z,3.81
2023-04-09T05:59:16.416Z,3.87
2023-04-09T06:00:16.410Z,3.91
2023-04-09T06:01:16.384Z,3.94
2023-04-09T06:02:16.388Z,3.96
2023-04-09T06:03:16.459Z,4.00
2023-04-09T06:04:16.358Z,4.03
2023-04-09T06:05:16.331Z,4.08
2023-04-09T06:06:16.283Z,4.12
2023-04-09T06:07:16.288Z,4.16
2023-04-09T06:08:16.267Z,4.17
2023-04-09T06:09:16.277Z,4.24
2023-04-09T06:10:16.222Z,4.28
2023-04-09T06:11:16.223Z,4.35
2023-04-09T06:12:16.333Z,4.42
2023-04-09T06:13:16.198Z,4.48
2023-04-09T06:14:16.173Z,4.53
2023-04-09T06:15:16.182Z,4.57
2023-04-09T06:16:16.279Z,4.60
2023-04-09T06:17:16.157Z,4.63
2023-04-09T06:18:16.167Z,4.67
2023-04-09T06:19:16.186Z,4.74
2023-04-09T06:20:16.132Z,4.78
2023-04-09T06:21:16.107Z,4.86
2023-04-09T06:22:16.106Z,4.93
2023-04-09T06:23:16.165Z,4.97
2023-04-09T06:24:16.088Z,5.00
2023-04-09T06:25:16.079Z,5.04
2023-04-09T06:26:16.055Z,5.09
2023-04-09T06:27:16.060Z,5.16
2023-04-09T06:28:16.073Z,5.24
2023-04-09T06:29:16.028Z,5.30
2023-04-09T06:30:16.154Z,5.37
2023-04-09T06:31:16.106Z,5.47
2023-04-09T06:32:15.996Z,5.55
2023-04-09T06:33:16.012Z,5.62
2023-04-09T06:34:15.970Z,5.69
2023-04-09T06:35:15.983Z,5.75
2023-04-09T06:36:15.998Z,5.84
2023-04-09T06:37:15.940Z,5.90
2023-04-09T06:38:15.961Z,5.95
2023-04-09T06:39:15.961Z,6.03
2023-04-09T06:40:15.920Z,6.11
2023-04-09T06:41:16.035Z,6.15
2023-04-09T06:42:15.917Z,6.25
2023-04-09T06:43:15.888Z,6.31
2023-04-09T06:44:15.884Z,6.37
2023-04-09T06:45:15.856Z,6.45
2023-04-09T06:46:15.892Z,6.53
2023-04-09T06:47:15.873Z,6.56
2023-04-09T06:48:15.811Z,6.63
2023-04-09T06:49:15.829Z,6.70
2023-04-09T06:50:15.816Z,6.73
2023-04-09T06:51:15.791Z,6.81
2023-04-09T06:52:15.864Z,6.83
2023-04-09T06:53:15.801Z,6.91
2023-04-09T06:54:15.800Z,6.97
2023-04-09T06:55:15.767Z,7.00
2023-04-09T06:56:15.798Z,7.01
2023-04-09T06:57:15.721Z,7.10
2023-04-09T06:58:15.781Z,7.21
2023-04-09T06:59:15.704Z,7.28
2023-04-09T07:00:15.715Z,7.33
2023-04-09T07:01:15.704Z,7.39
2023-04-09T07:02:15.756Z,7.44
2023-04-09T07:03:15.762Z,7.55
2023-04-09T07:04:15.942Z,7.64
2023-04-09T07:05:15.671Z,7.73
2023-04-09T07:06:15.684Z,7.76
2023-04-09T07:07:15.616Z,7.81
2023-04-09T07:08:15.713Z,7.84
2023-04-09T07:09:15.741Z,7.96
2023-04-09T07:10:15.651Z,8.01
2023-04-09T07:11:15.629Z,8.05
2023-04-09T07:12:15.584Z,8.06
2023-04-09T07:13:15.565Z,8.13
2023-04-09T07:14:15.632Z,8.17
2023-04-09T07:15:15.625Z,8.24
2023-04-09T07:16:15.672Z,8.31
2023-04-09T07:17:15.752Z,8.35
2023-04-09T07:18:15.555Z,8.39
2023-04-09T07:19:15.577Z,8.53
2023-04-09T07:20:15.529Z,8.52
2023-04-09T07:21:15.476Z,8.56
2023-04-09T07:22:15.494Z,8.63
2023-04-09T07:23:15.456Z,8.68
2023-04-09T07:24:15.520Z,8.71
2023-04-09T07:25:15.480Z,8.75
2023-04-09T07:26:15.432Z,8.80
2023-04-09T07:27:15.439Z,8.86
2023-04-09T07:28:15.534Z,8.90
2023-04-09T07:29:15.395Z,8.92
2023-04-09T07:30:15.416Z,8.92
2023-04-09T07:31:15.426Z,8.95
2023-04-09T07:32:15.378Z,8.93
2023-04-09T07:33:15.365Z,8.88
2023-04-09T07:34:15.355Z,9.01
2023-04-09T07:35:15.341Z,8.98
2023-04-09T07:36:15.600Z,9.01
2023-04-09T07:37:15.403Z,9.09
2023-04-09T07:38:15.460Z,9.18
2023-04-09T07:39:15.288Z,9.24
2023-04-09T07:40:15.327Z,9.33
2023-04-09T07:41:15.433Z,9.37
2023-04-09T07:42:15.273Z,9.48
2023-04-09T07:43:15.252Z,9.59
2023-04-09T07:44:15.246Z,9.66
2023-04-09T07:45:15.224Z,9.66
2023-04-09T07:46:15.512Z,9.75
2023-04-09T07:47:15.213Z,9.75
2023-04-09T07:48:15.239Z,9.90
2023-04-09T07:49:15.182Z,10.06
2023-04-09T07:50:15.179Z,10.12
2023-04-09T07:51:15.196Z,10.08
2023-04-09T07:52:15.530Z,10.17
2023-04-09T07:53:15.169Z,10.20
2023-04-09T07:54:15.171Z,10.26
2023-04-09T07:55:16.297Z,10.38
2023-04-09T07:56:15.124Z,10.41
2023-04-09T07:57:15.153Z,10.42
2023-04-09T07:58:15.129Z,10.34
2023-04-09T07:59:15.091Z,10.30
2023-04-09T08:00:15.100Z,10.42
2023-04-09T08:01:15.050Z,10.52
2023-04-09T08:02:15.500Z,10.46
2023-04-09T08:03:15.313Z,10.54
2023-04-09T08:04:15.236Z,10.60
2023-04-09T08:05:15.184Z,10.76
2023-04-09T08:06:17.688Z,10.87
2023-04-09T08:07:14.986Z,11.05
2023-04-09T08:08:15.010Z,11.22
2023-04-09T08:09:14.974Z,11.25
2023-04-09T08:10:15.042Z,11.20
2023-04-09T08:11:14.967Z,11.22
2023-04-09T08:12:14.958Z,11.22
2023-04-09T08:13:14.993Z,11.27
2023-04-09T08:14:14.941Z,11.33
2023-04-09T08:15:14.908Z,11.46
2023-04-09T08:16:14.950Z,11.58
2023-04-09T08:17:14.890Z,11.67
2023-04-09T08:18:14.892Z,11.66
2023-04-09T08:19:14.899Z,11.77
2023-04-09T08:20:14.901Z,11.76
2023-04-09T08:21:14.871Z,11.76
2023-04-09T08:22:14.884Z,11.79
2023-04-09T08:23:14.873Z,11.84
2023-04-09T08:24:14.940Z,11.84
2023-04-09T08:25:14.881Z,11.93
2023-04-09T08:26:14.852Z,11.95
2023-04-09T08:27:14.827Z,11.96
2023-04-09T08:28:14.834Z,11.97
2023-04-09T08:29:14.772Z,12.08
2023-04-09T08:30:15.923Z,12.15
2023-04-09T08:31:14.742Z,12.04
2023-04-09T08:32:14.840Z,11.97
2023-04-09T08:33:15.010Z,12.07
2023-04-09T08:34:14.716Z,12.22
2023-04-09T08:35:14.750Z,12.35
2023-04-09T08:36:14.727Z,12.48
2023-04-09T08:37:14.693Z,12.41
2023-04-09T08:38:14.683Z,12.46
2023-04-09T08:39:14.695Z,12.61
2023-04-09T08:40:14.720Z,12.66
2023-04-09T08:41:15.143Z,12.83
2023-04-09T08:42:14.696Z,12.83
2023-04-09T08:43:14.745Z,12.86
2023-04-09T08:44:14.674Z,13.05
2023-04-09T08:45:14.658Z,13.08
2023-04-09T08:46:14.629Z,13.08
2023-04-09T08:47:14.794Z,12.83
2023-04-09T08:48:14.928Z,12.81
2023-04-09T08:49:15.271Z,12.90
2023-04-09T08:50:14.564Z,12.98
2023-04-09T08:51:14.557Z,13.01
2023-04-09T08:52:14.558Z,12.95
2023-04-09T08:53:14.581Z,13.04
2023-04-09T08:54:14.540Z,13.09
2023-04-09T08:55:14.573Z,13.17
2023-04-09T08:56:14.501Z,13.17
2023-04-09T08:57:14.479Z,13.29
2023-04-09T08:58:14.473Z,13.42
2023-04-09T08:59:14.607Z,13.32
2023-04-09T09:00:14.480Z,13.27
2023-04-09T09:01:14.470Z,13.35
2023-04-09T09:02:14.510Z,13.47
2023-04-09T09:03:14.554Z,13.55
2023-04-09T09:04:14.447Z,13.65
2023-04-09T09:05:14.394Z,13.64
2023-04-09T09:06:14.418Z,13.65
2023-04-09T09:07:14.408Z,13.40
2023-04-09T09:08:14.381Z,13.54
2023-04-09T09:09:14.359Z,13.58
2023-04-09T09:10:14.393Z,13.57
2023-04-09T09:11:14.391Z,13.36
2023-04-09T09:12:14.486Z,13.40
2023-04-09T09:13:14.401Z,13.54
2023-04-09T09:14:14.298Z,13.71
2023-04-09T09:15:14.763Z,13.80
2023-04-09T09:16:14.382Z,13.75
2023-04-09T09:17:14.438Z,13.82
2023-04-09T09:18:14.573Z,13.93
2023-04-09T09:19:14.244Z,14.09
2023-04-09T09:20:14.232Z,13.93
2023-04-09T09:21:14.385Z,13.86
2023-04-09T09:22:14.243Z,13.79
2023-04-09T09:23:14.295Z,13.76
2023-04-09T09:24:14.231Z,13.79
2023-04-09T09:25:14.190Z,13.88
2023-04-09T09:26:14.163Z,13.82
2023-04-09T09:27:14.170Z,13.79
2023-04-09T09:28:14.242Z,13.86
2023-04-09T09:29:14.148Z,13.97
2023-04-09T09:30:14.177Z,14.22
2023-04-09T09:31:14.201Z,14.48
2023-04-09T09:32:14.127Z,14.73
2023-04-09T09:33:14.108Z,14.71
2023-04-09T09:34:14.193Z,14.85
2023-04-09T09:35:14.293Z,14.95
2023-04-09T09:36:14.080Z,15.04
2023-04-09T09:37:14.052Z,15.17
2023-04-09T09:38:14.176Z,15.32
2023-04-09T09:39:14.030Z,15.23
2023-04-09T09:40:14.043Z,15.15
2023-04-09T09:41:14.076Z,15.26
2023-04-09T09:42:14.004Z,15.07
2023-04-09T09:43:14.677Z,14.92
2023-04-09T09:44:13.999Z,14.89
2023-04-09T09:45:13.981Z,14.87
2023-04-09T09:46:14.045Z,14.93
2023-04-09T09:47:13.987Z,14.95
2023-04-09T09:48:13.971Z,15.12
2023-04-09T09:49:14.180Z,15.04
2023-04-09T09:50:13.939Z,14.99
2023-04-09T09:51:13.906Z,14.97
2023-04-09T09:52:13.904Z,14.92
2023-04-09T09:53:13.889Z,15.14
2023-04-09T09:54:13.886Z,15.35
2023-04-09T09:55:13.940Z,15.20
2023-04-09T09:56:13.866Z,15.45
2023-04-09T09:57:14.585Z,15.59
2023-04-09T09:58:14.136Z,15.43
2023-04-09T09:59:13.838Z,15.38
2023-04-09T10:00:13.867Z,15.43
2023-04-09T10:01:13.840Z,15.54
2023-04-09T10:02:13.840Z,15.48
2023-04-09T10:03:13.883Z,15.52
2023-04-09T10:04:13.829Z,15.62
2023-04-09T10:05:13.777Z,15.73
2023-04-09T10:06:13.936Z,15.77
2023-04-09T10:07:13.737Z,15.51
2023-04-09T10:08:13.745Z,15.60
2023-04-09T10:09:13.724Z,15.62
2023-04-09T10:10:13.981Z,15.68
2023-04-09T10:11:13.712Z,15.80
2023-04-09T10:12:13.785Z,16.00
2023-04-09T10:13:13.944Z,16.33
2023-04-09T10:14:14.887Z,16.34
2023-04-09T10:15:13.957Z,15.88
2023-04-09T10:16:13.732Z,15.85
2023-04-09T10:17:13.652Z,16.02
2023-04-09T10:18:13.659Z,16.47
2023-04-09T10:19:13.604Z,16.16
2023-04-09T10:20:13.999Z,16.09
2023-04-09T10:21:13.719Z,16.22
2023-04-09T10:22:13.625Z,16.59
2023-04-09T10:23:14.126Z,16.97
2023-04-09T10:24:13.594Z,17.47
2023-04-09T10:25:13.592Z,17.90
2023-04-09T10:26:13.752Z,18.26
2023-04-09T10:27:15.957Z,18.43
2023-04-09T10:28:13.532Z,18.21
2023-04-09T10:29:13.649Z,18.03
2023-04-09T10:30:13.538Z,18.01
2023-04-09T10:31:13.687Z,17.71
2023-04-09T10:32:13.505Z,17.72
2023-04-09T10:33:13.563Z,17.97
2023-04-09T10:34:13.556Z,17.97
2023-04-09T10:35:13.479Z,18.15
2023-04-09T10:36:13.571Z,18.48
2023-04-09T10:37:13.467Z,18.57
2023-04-09T10:38:13.571Z,18.49
2023-04-09T10:39:13.617Z,18.67
2023-04-09T10:40:13.441Z,19.08
2023-04-09T10:41:13.393Z,19.39
2023-04-09T10:42:13.435Z,18.70
2023-04-09T10:43:13.409Z,17.57
2023-04-09T10:44:13.503Z,16.59
2023-04-09T10:45:13.858Z,16.76
2023-04-09T10:46:13.784Z,16.55
2023-04-09T10:47:13.738Z,16.64
2023-04-09T10:48:13.358Z,16.42
2023-04-09T10:49:13.324Z,16.55
2023-04-09T10:50:13.328Z,16.44
2023-04-09T10:51:13.289Z,17.22
2023-04-09T10:52:13.365Z,17.12
2023-04-09T10:53:13.366Z,16.72
2023-04-09T10:54:13.263Z,17.57
2023-04-09T10:55:13.381Z,18.70
2023-04-09T10:56:13.269Z,18.48
2023-04-09T10:57:13.439Z,18.41
2023-04-09T10:58:13.932Z,17.94
2023-04-09T10:59:13.346Z,18.24
2023-04-09T11:00:13.868Z,18.61
2023-04-09T11:01:13.235Z,19.23
2023-04-09T11:02:13.264Z,19.54
2023-04-09T11:03:13.469Z,19.64
2023-04-09T11:04:13.241Z,19.45
2023-04-09T11:05:13.502Z,19.32
2023-04-09T11:06:13.176Z,19.82
2023-04-09T11:07:13.229Z,19.99
2023-04-09T11:08:13.435Z,20.26
2023-04-09T11:09:13.413Z,20.39
2023-04-09T11:10:14.908Z,20.58
2023-04-09T11:11:13.105Z,20.53
2023-04-09T11:12:13.116Z,19.16
2023-04-09T11:13:13.629Z,18.18
2023-04-09T11:14:13.144Z,17.62
2023-04-09T11:15:13.275Z,17.97
2023-04-09T11:16:13.122Z,17.59
2023-04-09T11:17:13.087Z,16.94
2023-04-09T11:18:13.786Z,18.09
2023-04-09T11:19:13.110Z,18.97
2023-04-09T11:20:12.967Z,19.97
2023-04-09T11:21:13.093Z,20.34
2023-04-09T11:22:12.951Z,20.92
2023-04-09T11:23:12.955Z,21.11
2023-04-09T11:24:13.354Z,21.66
2023-04-09T11:25:13.316Z,21.60
2023-04-09T11:26:12.963Z,21.48
2023-04-09T11:27:12.928Z,21.20
2023-04-09T11:28:12.899Z,20.92
2023-04-09T11:29:12.950Z,19.77
2023-04-09T11:30:12.869Z,18.83
2023-04-09T11:31:12.937Z,18.82
2023-04-09T11:32:12.844Z,19.74
2023-04-09T11:33:12.913Z,19.86
2023-04-09T11:34:12.820Z,19.82
2023-04-09T11:35:13.466Z,19.30
2023-04-09T11:36:12.906Z,19.04
2023-04-09T11:37:13.140Z,18.45
2023-04-09T11:38:12.906Z,17.73
2023-04-09T11:39:13.459Z,17.27
2023-04-09T11:40:13.144Z,17.20
2023-04-09T11:41:12.827Z,17.52
2023-04-09T11:42:12.746Z,18.41
2023-04-09T11:43:12.770Z,17.71
2023-04-09T11:44:12.735Z,17.34
2023-04-09T11:45:13.427Z,17.84
2023-04-09T11:46:12.700Z,18.24
2023-04-09T11:47:12.703Z,17.78
2023-04-09T11:48:13.444Z,17.63
2023-04-09T11:49:13.007Z,17.35
2023-04-09T11:50:13.048Z,16.97
2023-04-09T11:51:12.660Z,16.47
2023-04-09T11:52:12.663Z,16.21
2023-04-09T11:53:12.825Z,15.90
2023-04-09T11:54:12.634Z,15.87
2023-04-09T11:55:13.069Z,15.96
2023-04-09T11:56:12.630Z,16.05
2023-04-09T11:57:12.598Z,15.98
2023-04-09T11:58:12.577Z,15.99
2023-04-09T11:59:12.625Z,16.13
2023-04-09T12:00:12.548Z,16.06
2023-04-09T12:01:12.602Z,16.08
2023-04-09T12:02:12.684Z,16.08
2023-04-09T12:03:12.869Z,16.09
2023-04-09T12:04:12.831Z,16.33
2023-04-09T12:05:12.711Z,16.10
2023-04-09T12:06:13.132Z,16.03
2023-04-09T12:07:12.514Z,15.91
2023-04-09T12:08:12.529Z,15.91
2023-04-09T12:09:12.492Z,15.84
2023-04-09T12:10:12.489Z,15.77
2023-04-09T12:11:12.452Z,15.47
2023-04-09T12:12:12.519Z,15.45
2023-04-09T12:13:12.445Z,15.45
2023-04-09T12:14:12.438Z,15.36
2023-04-09T12:15:12.459Z,15.23
2023-04-09T12:16:12.431Z,15.26
2023-04-09T12:17:12.454Z,15.35
2023-04-09T12:18:13.662Z,15.35
2023-04-09T12:19:12.374Z,15.19
2023-04-09T12:20:12.368Z,15.20
2023-04-09T12:21:12.401Z,15.29
2023-04-09T12:22:12.327Z,15.41
2023-04-09T12:23:12.345Z,15.27
2023-04-09T12:24:12.317Z,15.14
2023-04-09T12:25:12.475Z,15.03
2023-04-09T12:26:12.385Z,15.10
2023-04-09T12:27:12.338Z,15.14
2023-04-09T12:28:12.271Z,15.12
2023-04-09T12:29:12.309Z,15.04
2023-04-09T12:30:12.270Z,15.08
2023-04-09T12:31:13.801Z,15.14
2023-04-09T12:32:12.290Z,15.12
2023-04-09T12:33:12.388Z,15.05
2023-04-09T12:34:12.315Z,15.08
2023-04-09T12:35:12.194Z,15.05
2023-04-09T12:36:12.293Z,15.10
2023-04-09T12:37:12.210Z,15.22
2023-04-09T12:38:12.312Z,15.30
2023-04-09T12:39:12.187Z,15.43
2023-04-09T12:40:12.144Z,15.43
2023-04-09T12:41:12.138Z,15.25
2023-04-09T12:42:12.225Z,15.33
2023-04-09T12:43:12.148Z,15.23
2023-04-09T12:44:12.135Z,15.40
2023-04-09T12:45:12.110Z,15.47
2023-04-09T12:46:12.282Z,15.58
2023-04-09T12:47:12.144Z,15.52
2023-04-09T12:48:12.081Z,15.62
2023-04-09T12:49:12.088Z,15.70
2023-04-09T12:50:12.079Z,15.78
2023-04-09T12:51:12.031Z,15.99
2023-04-09T12:52:12.011Z,17.16
2023-04-09T12:53:12.028Z,16.94
2023-04-09T12:54:12.044Z,16.79
2023-04-09T12:55:12.371Z,18.34
2023-04-09T12:56:11.976Z,19.87
2023-04-09T12:57:11.977Z,20.65
2023-04-09T12:58:12.003Z,20.49
2023-04-09T12:59:12.182Z,21.45
2023-04-09T13:00:11.944Z,22.23
2023-04-09T13:01:12.061Z,22.92
2023-04-09T13:02:12.164Z,22.51
2023-04-09T13:03:12.106Z,21.88
2023-04-09T13:04:12.027Z,22.31
2023-04-09T13:05:11.888Z,22.46
2023-04-09T13:06:11.897Z,22.40
2023-04-09T13:07:11.901Z,22.58
2023-04-09T13:08:11.891Z,22.09